Flight Track Log - Related Links

Times and Time Zones

All times are in EDT time to prevent confusion due to time zone crossing. See the SWA499 flight status page for this flight to view local times or setup timezone preferences in your user account.

Time Position Orientation Groundspeed Altitude Reporting Facility
EDT Latitude Longitude Course Direction KTS MPH feet Rate Location/Type
Mon 10:27:30 AM 40.7569 -112.0331 283° West 186 214 6,500  Level Salt Lake Center
Mon 10:28:15 AM 40.7650 -112.0789 283° West 228 262 7,400 2,557 Climbing Salt Lake Center
Mon 10:30:00 AM 40.9123 -112.2311 339° North  Level FlightAware Approximate
Mon 10:32:21 AM 40.9447 -112.0581 95° East 310 357 18,900  Level Salt Lake Center
Mon 10:33:23 AM 40.9394 -111.9286 93° East 364 419 20,400 2,162 Climbing Salt Lake Center
Mon 10:35:00 AM 40.8852 -111.7007 97° East  Level FlightAware Approximate
Mon 10:36:28 AM 40.8981 -111.4775 94° East 403 464 27,800  Level Salt Lake Center
Mon 10:37:00 AM 40.8473 -111.2256 95° East  Level FlightAware Approximate
Mon 10:38:00 AM 40.8713 -111.2579 95° East  Level Estimated
Mon 10:38:31 AM 40.8642 -111.1603 95° East 446 513 30,200  Level Salt Lake Center
Mon 10:39:33 AM 40.8469 -110.9944 98° East 455 524 32,100 1,790 Climbing Salt Lake Center
Mon 10:40:35 AM 40.8300 -110.8314 98° East 452 520 33,900 1,742 Climbing Salt Lake Center
Mon 10:41:37 AM 40.8083 -110.6358 98° East 450 518 35,700 1,330 Climbing Salt Lake Center
Mon 10:42:00 AM 40.7953 -110.6966 94° East  Level FlightAware Approximate
Mon 10:43:40 AM 40.7744 -110.3169 98° East 453 521 38,000  Level Salt Lake Center
Mon 10:45:00 AM 40.7414 -110.1289 103° East  Level FlightAware Approximate
Mon 10:48:14 AM 40.7072 -109.5447 96° East 460 529 39,000  Level Denver Center
Mon 10:48:48 AM 40.7014 -109.4658 96° East 464 534 39,000  Level Salt Lake Center
Mon 10:49:50 AM 40.6867 -109.2783 96° East 460 529 39,000  Level Salt Lake Center
Mon 10:52:00 AM 40.6682 -109.1209 95° East  Level FlightAware Approximate
Mon 10:52:22 AM 40.6539 -108.8453 96° East 462 532 39,000  Level Denver Center
Mon 10:53:00 AM 40.6573 -108.9770 96° East  Level FlightAware Approximate
Mon 10:53:24 AM 40.6408 -108.6828 96° East 463 533 39,000  Level Denver Center
Mon 10:54:26 AM 40.6278 -108.4939 95° East 462 532 39,000 -189 Level Denver Center
Mon 10:54:59 AM 40.6225 -108.4269 96° East 462 532 38,700 -947 Descending Salt Lake Center
Mon 10:56:01 AM 40.6083 -108.2431 96° East 456 525 37,500 -1,020 Descending Salt Lake Center
Mon 10:57:32 AM 40.5889 -107.9953 96° East 451 519 36,100 -1,255 Descending Denver Center
Mon 10:58:34 AM 40.5764 -107.8367 96° East 453 521 34,300 -1,385 Descending Denver Center
Mon 11:00:08 AM 40.5525 -107.5603 96° East 458 527 32,500 -1,065 Descending Salt Lake Center
Mon 11:00:38 AM 40.5472 -107.4911 96° East 459 528 32,100 -913 Descending Denver Center
Mon 11:01:40 AM 40.5308 -107.3014 96° East 465 535 31,100 -968 Descending Denver Center
Mon 11:02:42 AM 40.5164 -107.1308 96° East 467 537 30,100 -968 Descending Denver Center
Mon 11:03:44 AM 40.5019 -106.9614 96° East 466 536 29,100 -968 Descending Denver Center
Mon 11:05:00 AM 40.4877 -106.7797 96° East  Level FlightAware Approximate
Mon 11:05:48 AM 40.4722 -106.6228 96° East 462 532 27,100  Level Denver Center
Mon 11:06:50 AM 40.4547 -106.4431 97° East 458 527 27,000 -387 Descending Denver Center
Mon 11:08:00 AM 40.4500 -106.2749 90° East  Level FlightAware Approximate
Mon 11:08:54 AM 40.4214 -106.1031 90° East 457 526 25,900  Level Denver Center
Mon 11:09:56 AM 40.4072 -105.9397 96° East 448 516 23,900 -1,887 Descending Denver Center
Mon 11:10:58 AM 40.3922 -105.7814 97° East 435 501 22,000 -1,849 Descending Denver Center
Mon 11:12:48 AM 40.3667 -105.5167 97° East 370 426 18,600 -1,765 Descending Denver TRACON
Mon 11:13:48 AM 40.3500 -105.3833 99° East 367 422 17,000 -1,579 Descending Denver TRACON
Mon 11:14:04 AM 40.3369 -105.3611 128° Southeast 371 427 16,600 -1,385 Descending Denver Center
Mon 11:15:06 AM 40.3028 -105.2317 109° East 350 403 15,200 -1,161 Descending Denver Center
Mon 11:16:08 AM 40.2717 -105.1103 109° East 354 407 14,200 -768 Descending Denver Center
Mon 11:17:11 AM 40.2408 -104.9936 109° East 316 364 13,600 -576 Descending Denver Center
Mon 11:18:13 AM 40.2164 -104.9008 109° East 275 316 13,000 -871 Descending Denver Center
Mon 11:19:15 AM 40.1775 -104.8300 126° Southeast 248 285 11,800 -1,306 Descending Denver Center
Mon 11:20:17 AM 40.1144 -104.7864 152° Southeast 236 272 10,300 -1,290 Descending Denver Center
Mon 11:22:21 AM 40.0047 -104.7119 153° Southeast 203 234 7,800 -1,137 Descending Denver Center
Mon 11:24:25 AM 39.9114 -104.6961 173° South 158 182 5,600 -806 Descending Denver Center
Mon 11:25:27 AM 39.8739 -104.6967 181° South 146 168 5,300 -290 Descending Denver Center
Mon 11:27:00 AM 39.8617 -104.6732 North  Level Estimated
Mon 11:34:00 AM 39.8617 -104.6732 North  Level Estimated
Mon 11:35:00 AM 39.8617 -104.6732 North  Level Estimated

Login

Don't have an account? Register now (free) for customized features, flight alerts, and more!